createdAt,value
2022-09-28T00:01:25.100Z,0.00
2022-09-28T00:03:58.130Z,0.00
2022-09-28T00:06:28.108Z,0.00
2022-09-28T00:08:54.968Z,0.30
2022-09-28T00:11:24.253Z,0.00
2022-09-28T00:13:56.266Z,0.00
2022-09-28T00:16:28.086Z,0.00
2022-09-28T00:18:55.732Z,0.00
2022-09-28T00:21:26.809Z,0.00
2022-09-28T00:24:14.998Z,0.00
2022-09-28T00:26:47.693Z,0.00
2022-09-28T00:29:35.905Z,0.00
2022-09-28T00:32:21.689Z,0.00
2022-09-28T00:34:49.170Z,0.00
2022-09-28T00:37:16.042Z,0.00
2022-09-28T00:39:44.291Z,0.00
2022-09-28T00:42:15.861Z,0.00
2022-09-28T00:44:52.133Z,0.00
2022-09-28T00:47:37.934Z,0.00
2022-09-28T00:50:28.759Z,0.00
2022-09-28T00:53:21.337Z,0.00
2022-09-28T00:55:57.259Z,0.00
2022-09-28T00:58:32.112Z,0.00
2022-09-28T01:00:59.596Z,0.00
2022-09-28T01:03:28.385Z,0.00
2022-09-28T01:05:59.449Z,0.00
2022-09-28T01:08:29.292Z,0.00
2022-09-28T01:11:00.396Z,0.00
2022-09-28T01:13:31.413Z,0.00
2022-09-28T01:16:24.324Z,0.00
2022-09-28T01:19:31.860Z,0.00
2022-09-28T01:22:47.518Z,0.00
2022-09-28T01:25:25.755Z,0.00
2022-09-28T01:27:59.692Z,0.00
2022-09-28T01:30:26.589Z,0.00
2022-09-28T01:33:06.889Z,0.00
2022-09-28T01:35:43.285Z,0.00
2022-09-28T01:38:21.661Z,0.00
2022-09-28T01:40:50.435Z,0.00
2022-09-28T01:43:22.420Z,0.00
2022-09-28T01:46:02.977Z,0.00
2022-09-28T01:48:50.634Z,0.00
2022-09-28T01:51:46.457Z,0.00
2022-09-28T01:54:19.921Z,0.00
2022-09-28T01:57:15.924Z,0.00
2022-09-28T02:00:01.355Z,0.00
2022-09-28T02:02:37.344Z,0.00
2022-09-28T02:05:24.199Z,0.00
2022-09-28T02:08:02.134Z,0.00
2022-09-28T02:10:42.475Z,0.00
2022-09-28T02:13:14.685Z,0.00
2022-09-28T02:15:59.662Z,0.00
2022-09-28T02:18:26.260Z,0.00
2022-09-28T02:21:06.391Z,0.00
2022-09-28T02:23:36.849Z,0.00
2022-09-28T02:26:11.598Z,0.00
2022-09-28T02:28:38.294Z,0.00
2022-09-28T02:31:05.159Z,0.00
2022-09-28T02:33:37.463Z,0.43
2022-09-28T02:36:04.960Z,0.00
2022-09-28T02:38:37.775Z,0.00
2022-09-28T02:41:45.406Z,0.00
2022-09-28T02:44:37.920Z,0.00
2022-09-28T02:47:35.937Z,0.00
2022-09-28T02:50:17.828Z,0.00
2022-09-28T02:53:21.984Z,0.00
2022-09-28T02:56:03.801Z,0.00
2022-09-28T02:59:19.209Z,0.00
2022-09-28T03:02:01.416Z,0.00
2022-09-28T03:05:07.357Z,0.00
2022-09-28T03:07:46.564Z,0.00
2022-09-28T03:10:25.103Z,0.00
2022-09-28T03:12:54.009Z,0.00
2022-09-28T03:15:21.061Z,0.00
2022-09-28T03:17:48.008Z,0.00
2022-09-28T03:20:15.338Z,0.00
2022-09-28T03:22:42.209Z,0.00
2022-09-28T03:25:09.724Z,0.00
2022-09-28T03:27:38.761Z,0.00
2022-09-28T03:30:07.774Z,0.00
2022-09-28T03:32:35.124Z,0.00
2022-09-28T03:35:01.933Z,0.00
2022-09-28T03:37:29.129Z,0.00
2022-09-28T03:39:55.728Z,0.00
2022-09-28T03:42:22.580Z,0.00
2022-09-28T03:44:51.023Z,0.00
2022-09-28T03:47:19.231Z,0.00
2022-09-28T03:49:46.254Z,0.00
2022-09-28T03:52:14.236Z,0.00
2022-09-28T03:54:43.718Z,0.00
2022-09-28T03:57:12.741Z,0.00
2022-09-28T03:59:39.315Z,0.00
2022-09-28T04:02:06.228Z,0.00
2022-09-28T04:04:32.880Z,0.00
2022-09-28T04:06:59.640Z,0.00
2022-09-28T04:09:26.444Z,0.00
2022-09-28T04:12:03.885Z,0.00
2022-09-28T04:14:32.412Z,0.00
2022-09-28T04:16:59.053Z,0.00
2022-09-28T04:19:27.488Z,0.00
2022-09-28T04:22:17.393Z,0.30
2022-09-28T04:24:44.196Z,0.00
2022-09-28T04:27:29.485Z,0.00
2022-09-28T04:29:56.133Z,0.00
2022-09-28T04:32:23.011Z,0.00
2022-09-28T04:34:51.807Z,0.00
2022-09-28T04:37:18.842Z,0.00
2022-09-28T04:39:48.406Z,0.20
2022-09-28T04:42:18.061Z,0.00
2022-09-28T04:44:45.168Z,0.00
2022-09-28T04:47:12.378Z,0.22
2022-09-28T04:49:57.073Z,0.00
2022-09-28T04:52:31.128Z,0.00
2022-09-28T04:54:57.713Z,0.00
2022-09-28T04:57:25.463Z,0.00
2022-09-28T04:59:52.057Z,0.00
2022-09-28T05:02:18.664Z,0.00
2022-09-28T05:05:04.444Z,0.17
2022-09-28T05:07:38.002Z,0.00
2022-09-28T05:10:06.789Z,0.00
2022-09-28T05:12:33.899Z,0.00
2022-09-28T05:15:00.775Z,0.00
2022-09-28T05:17:27.646Z,0.00
2022-09-28T05:20:09.477Z,0.00
2022-09-28T05:22:36.136Z,0.00
2022-09-28T05:25:04.730Z,0.00
2022-09-28T05:27:40.466Z,0.00
2022-09-28T05:30:27.222Z,0.00
2022-09-28T05:33:16.706Z,0.00
2022-09-28T05:36:00.293Z,0.00
2022-09-28T05:38:28.349Z,0.00
2022-09-28T05:40:56.132Z,0.00
2022-09-28T05:43:23.896Z,0.00
2022-09-28T05:45:55.297Z,0.00
2022-09-28T05:48:22.487Z,0.00
2022-09-28T05:50:53.088Z,0.00
2022-09-28T05:53:20.889Z,0.00
2022-09-28T05:55:48.055Z,0.00
2022-09-28T05:58:15.291Z,0.00
2022-09-28T06:00:43.209Z,0.00
2022-09-28T06:03:14.232Z,0.00
2022-09-28T06:05:41.487Z,0.00
2022-09-28T06:08:12.873Z,0.00
2022-09-28T06:13:11.867Z,0.00
2022-09-28T06:15:42.693Z,0.00
2022-09-28T06:18:16.674Z,0.00
2022-09-28T06:21:02.537Z,0.00
2022-09-28T06:23:40.313Z,0.00
2022-09-28T06:26:07.858Z,0.00
2022-09-28T06:28:34.475Z,0.00
2022-09-28T06:31:01.629Z,0.00
2022-09-28T06:33:30.087Z,0.00
2022-09-28T06:35:59.785Z,0.00
2022-09-28T06:38:26.519Z,0.00
2022-09-28T06:40:53.602Z,0.00
2022-09-28T06:43:20.919Z,0.00
2022-09-28T06:46:26.015Z,0.00
2022-09-28T06:49:19.345Z,0.15
2022-09-28T06:52:04.867Z,0.00
2022-09-28T06:54:57.410Z,0.00
2022-09-28T06:57:33.657Z,0.00
2022-09-28T07:00:00.569Z,0.00
2022-09-28T07:02:27.453Z,0.00
2022-09-28T07:04:57.005Z,0.00
2022-09-28T07:07:49.622Z,0.00
2022-09-28T07:10:45.709Z,0.00
2022-09-28T07:13:50.309Z,0.00
2022-09-28T07:16:25.681Z,0.00
2022-09-28T07:18:53.888Z,0.00
2022-09-28T07:21:29.017Z,0.00
2022-09-28T07:23:57.138Z,0.00
2022-09-28T07:26:24.743Z,0.00
2022-09-28T07:29:01.346Z,0.00
2022-09-28T07:34:23.974Z,0.00
2022-09-28T07:37:18.784Z,0.00
2022-09-28T07:40:04.780Z,0.00
2022-09-28T07:42:33.660Z,0.00
2022-09-28T07:45:00.372Z,0.15
2022-09-28T07:47:32.315Z,0.00
2022-09-28T07:50:36.823Z,0.00
2022-09-28T07:53:25.473Z,0.00
2022-09-28T07:56:09.677Z,0.00
2022-09-28T07:58:49.608Z,0.00
2022-09-28T08:01:36.106Z,0.00
2022-09-28T08:04:02.921Z,0.00
2022-09-28T08:06:30.344Z,0.00
2022-09-28T08:08:59.877Z,0.00
2022-09-28T08:11:46.484Z,0.00
2022-09-28T08:14:24.595Z,0.22
2022-09-28T08:17:02.136Z,0.00
2022-09-28T08:19:58.733Z,0.00
2022-09-28T08:22:25.620Z,0.00
2022-09-28T08:24:55.436Z,0.00
2022-09-28T08:27:22.097Z,0.00
2022-09-28T08:29:48.688Z,0.05
2022-09-28T08:32:34.207Z,0.00
2022-09-28T08:35:19.670Z,0.00
2022-09-28T08:38:04.863Z,0.00
2022-09-28T08:41:11.831Z,0.00
2022-09-28T08:43:59.808Z,0.00
2022-09-28T08:46:42.097Z,0.00
2022-09-28T08:49:45.004Z,0.00
2022-09-28T08:52:39.294Z,0.00
2022-09-28T08:55:32.585Z,0.00
2022-09-28T08:58:13.544Z,0.00
2022-09-28T09:00:52.618Z,0.00
2022-09-28T09:03:37.694Z,0.00
2022-09-28T09:06:51.892Z,0.00
2022-09-28T09:09:48.002Z,0.00
2022-09-28T09:13:00.607Z,0.00
2022-09-28T09:15:55.185Z,0.00
2022-09-28T09:19:04.024Z,0.00
2022-09-28T09:22:13.454Z,0.00
2022-09-28T09:24:50.873Z,0.13
2022-09-28T09:27:45.849Z,0.00
2022-09-28T09:30:20.527Z,0.00
2022-09-28T09:33:06.842Z,0.00
2022-09-28T09:36:09.192Z,0.00
2022-09-28T09:39:18.438Z,0.10
2022-09-28T09:42:52.944Z,0.00
2022-09-28T09:45:52.143Z,0.00
2022-09-28T09:49:00.428Z,0.00
2022-09-28T09:51:39.155Z,0.00
2022-09-28T09:54:18.076Z,0.00
2022-09-28T09:57:01.195Z,0.00
2022-09-28T10:00:00.394Z,0.00
2022-09-28T10:02:42.982Z,0.00
2022-09-28T10:05:32.297Z,0.00
2022-09-28T10:08:15.523Z,0.00
2022-09-28T10:11:08.437Z,0.00
2022-09-28T10:13:39.917Z,0.00
2022-09-28T10:16:24.041Z,0.00
2022-09-28T10:18:56.576Z,0.00
2022-09-28T10:22:02.506Z,0.00
2022-09-28T10:24:35.592Z,0.00
2022-09-28T10:27:31.832Z,0.00
2022-09-28T10:30:16.092Z,0.00
2022-09-28T10:32:46.568Z,0.00
2022-09-28T10:35:19.299Z,0.00
2022-09-28T10:37:55.081Z,0.00
2022-09-28T10:40:46.734Z,0.00
2022-09-28T10:43:34.495Z,0.00
2022-09-28T10:46:10.748Z,0.00
2022-09-28T10:48:50.292Z,0.00
2022-09-28T10:51:17.668Z,0.00
2022-09-28T10:54:02.622Z,0.00
2022-09-28T10:56:42.434Z,0.00
2022-09-28T10:59:31.332Z,0.13
2022-09-28T11:02:23.773Z,0.00
2022-09-28T11:05:03.699Z,0.00
2022-09-28T11:07:47.862Z,0.13
2022-09-28T11:10:29.764Z,0.00
2022-09-28T11:13:02.058Z,0.00
2022-09-28T11:15:33.385Z,0.00
2022-09-28T11:18:31.301Z,0.00
2022-09-28T11:21:15.412Z,0.00
2022-09-28T11:24:07.337Z,0.00
2022-09-28T11:26:48.295Z,0.00
2022-09-28T11:29:44.049Z,0.00
2022-09-28T11:32:47.116Z,0.00
2022-09-28T11:35:45.856Z,0.00
2022-09-28T11:38:31.789Z,0.00
2022-09-28T11:41:57.744Z,0.00
2022-09-28T11:44:44.640Z,0.00
2022-09-28T11:47:29.620Z,0.00
2022-09-28T11:50:04.300Z,0.00
2022-09-28T11:52:59.251Z,0.00
2022-09-28T11:55:44.234Z,0.00
2022-09-28T11:58:53.336Z,0.00
2022-09-28T12:01:36.058Z,0.00
2022-09-28T12:04:42.317Z,0.00
2022-09-28T12:07:39.506Z,0.00
2022-09-28T12:10:51.724Z,0.00
2022-09-28T12:13:44.231Z,0.00
2022-09-28T12:19:34.978Z,0.00
2022-09-28T12:22:17.116Z,0.00
2022-09-28T12:24:50.921Z,0.00
2022-09-28T12:28:12.254Z,0.00
2022-09-28T12:30:41.679Z,0.00
2022-09-28T12:33:15.329Z,0.00
2022-09-28T12:35:57.075Z,0.00
2022-09-28T12:38:54.079Z,0.00
2022-09-28T12:45:08.804Z,0.00
2022-09-28T12:48:10.342Z,0.00
2022-09-28T12:50:57.766Z,0.00
2022-09-28T12:53:39.819Z,0.00
2022-09-28T12:56:38.410Z,0.00
2022-09-28T12:59:29.124Z,0.20
2022-09-28T13:02:40.743Z,0.30
2022-09-28T13:05:35.278Z,0.43
2022-09-28T13:08:18.868Z,0.40
2022-09-28T13:11:02.226Z,0.47
2022-09-28T13:13:47.861Z,0.30
2022-09-28T13:16:35.194Z,0.57
2022-09-28T13:19:21.947Z,0.57
2022-09-28T13:22:07.873Z,0.60
2022-09-28T13:24:44.164Z,0.60
2022-09-28T13:27:25.728Z,0.60
2022-09-28T13:29:54.967Z,0.57
2022-09-28T13:32:25.893Z,0.40
2022-09-28T13:34:52.902Z,0.65
2022-09-28T13:37:24.266Z,0.40
2022-09-28T13:39:56.470Z,0.45
2022-09-28T13:42:42.235Z,0.50
2022-09-28T13:45:22.932Z,0.57
2022-09-28T13:48:56.941Z,0.40
2022-09-28T13:51:37.995Z,0.45
2022-09-28T13:54:22.981Z,0.38
2022-09-28T13:56:49.498Z,0.38
2022-09-28T13:59:30.606Z,0.52
2022-09-28T14:02:28.868Z,0.80
2022-09-28T14:05:00.198Z,0.40
2022-09-28T14:07:33.468Z,0.30
2022-09-28T14:10:24.511Z,0.52
2022-09-28T14:12:53.228Z,1.25
2022-09-28T14:15:29.015Z,0.47
2022-09-28T14:18:26.187Z,0.47
2022-09-28T14:21:07.819Z,0.57
2022-09-28T14:24:11.734Z,0.38
2022-09-28T14:27:11.703Z,0.57
2022-09-28T14:29:39.831Z,0.50
2022-09-28T14:32:09.110Z,0.50
2022-09-28T14:34:45.255Z,0.50
2022-09-28T14:37:48.143Z,0.65
2022-09-28T14:40:38.913Z,0.38
2022-09-28T14:43:46.212Z,0.30
2022-09-28T14:46:16.824Z,0.40
2022-09-28T14:48:52.760Z,0.50
2022-09-28T14:51:31.621Z,0.50
2022-09-28T14:54:12.920Z,0.20
2022-09-28T14:56:51.870Z,0.30
2022-09-28T14:59:25.353Z,0.25
2022-09-28T15:02:06.313Z,0.38
2022-09-28T15:04:39.028Z,0.25
2022-09-28T15:07:05.940Z,0.20
2022-09-28T15:09:38.385Z,0.20
2022-09-28T15:12:13.029Z,0.32
2022-09-28T15:14:51.475Z,0.20
2022-09-28T15:17:23.301Z,0.30
2022-09-28T15:20:11.290Z,0.30
2022-09-28T15:22:45.172Z,0.40
2022-09-28T15:25:20.950Z,0.30
2022-09-28T15:27:54.662Z,0.52
2022-09-28T15:30:39.263Z,0.30
2022-09-28T15:33:24.606Z,0.30
2022-09-28T15:36:19.930Z,0.85
2022-09-28T15:39:00.785Z,0.60
2022-09-28T15:41:28.529Z,0.68
2022-09-28T15:44:10.405Z,0.40
2022-09-28T15:46:40.611Z,0.60
2022-09-28T15:49:24.075Z,0.63
2022-09-28T15:51:55.328Z,0.80
2022-09-28T15:54:42.912Z,0.45
2022-09-28T15:57:37.155Z,0.60
2022-09-28T16:00:21.343Z,0.50
2022-09-28T16:03:06.742Z,0.60
2022-09-28T16:05:59.498Z,1.00
2022-09-28T16:08:45.889Z,0.50
2022-09-28T16:11:27.396Z,0.88
2022-09-28T16:14:07.304Z,0.00
2022-09-28T16:16:46.811Z,0.00
2022-09-28T16:19:36.058Z,0.00
2022-09-28T16:22:07.129Z,0.70
2022-09-28T16:24:36.982Z,0.00
2022-09-28T16:27:22.969Z,0.00
2022-09-28T16:30:14.483Z,0.00
2022-09-28T16:32:59.077Z,0.00
2022-09-28T16:35:49.511Z,0.00
2022-09-28T16:38:18.372Z,0.00
2022-09-28T16:40:51.177Z,0.00
2022-09-28T16:43:26.875Z,0.00
2022-09-28T16:48:30.164Z,0.00
2022-09-28T16:50:58.436Z,0.00
2022-09-28T16:53:45.129Z,0.00
2022-09-28T16:56:12.731Z,0.00
2022-09-28T16:58:39.584Z,0.00
2022-09-28T17:01:09.868Z,0.00
2022-09-28T17:03:36.571Z,0.00
2022-09-28T17:06:06.212Z,0.00
2022-09-28T17:08:35.271Z,0.00
2022-09-28T17:11:22.750Z,0.00
2022-09-28T17:13:48.778Z,0.00
2022-09-28T17:16:43.027Z,0.00
2022-09-28T17:19:24.253Z,0.00
2022-09-28T17:21:52.585Z,0.00
2022-09-28T17:24:19.535Z,0.00
2022-09-28T17:26:49.135Z,0.00
2022-09-28T17:29:16.308Z,0.00
2022-09-28T17:31:45.245Z,0.00
2022-09-28T17:34:15.923Z,0.00
2022-09-28T17:36:43.533Z,0.00
2022-09-28T17:39:16.549Z,0.00
2022-09-28T17:41:43.290Z,0.00
2022-09-28T17:44:10.108Z,0.00
2022-09-28T17:46:40.642Z,0.00
2022-09-28T17:49:11.535Z,0.00
2022-09-28T17:51:38.324Z,0.00
2022-09-28T17:54:07.906Z,0.00
2022-09-28T17:56:35.832Z,0.00
2022-09-28T17:59:05.754Z,0.00
2022-09-28T18:01:34.490Z,0.00
2022-09-28T18:04:04.845Z,0.00
2022-09-28T18:06:33.649Z,0.32
2022-09-28T18:09:02.739Z,0.00
2022-09-28T18:11:30.296Z,0.00
2022-09-28T18:13:56.882Z,0.00
2022-09-28T18:16:23.708Z,0.00
2022-09-28T18:18:50.317Z,0.00
2022-09-28T18:21:16.924Z,0.00
2022-09-28T18:23:43.537Z,0.00
2022-09-28T18:26:13.004Z,0.00
2022-09-28T18:28:40.340Z,0.00
2022-09-28T18:31:13.393Z,0.00
2022-09-28T18:33:40.695Z,0.00
2022-09-28T18:36:08.273Z,0.00
2022-09-28T18:38:36.226Z,0.00
2022-09-28T18:41:18.303Z,0.00
2022-09-28T18:43:49.350Z,0.00
2022-09-28T18:46:20.234Z,0.00
2022-09-28T18:48:49.917Z,0.00
2022-09-28T18:51:16.514Z,0.00
2022-09-28T18:53:43.098Z,0.00
2022-09-28T18:56:14.484Z,0.00
2022-09-28T18:58:42.444Z,0.00
2022-09-28T19:01:31.708Z,0.00
2022-09-28T19:04:08.446Z,0.00
2022-09-28T19:06:42.788Z,0.00
2022-09-28T19:09:09.904Z,0.00
2022-09-28T19:11:36.831Z,0.00
2022-09-28T19:14:03.611Z,0.00
2022-09-28T19:16:33.944Z,0.00
2022-09-28T19:19:02.963Z,0.00
2022-09-28T19:21:30.702Z,0.00
2022-09-28T19:24:00.599Z,0.00
2022-09-28T19:26:28.846Z,0.00
2022-09-28T19:28:57.907Z,0.00
2022-09-28T19:31:26.315Z,0.00
2022-09-28T19:33:53.013Z,0.00
2022-09-28T19:36:25.753Z,0.00
2022-09-28T19:38:53.380Z,0.00
2022-09-28T19:41:43.555Z,0.00
2022-09-28T19:44:25.244Z,0.00
2022-09-28T19:46:56.577Z,0.00
2022-09-28T19:49:26.266Z,0.00
2022-09-28T19:52:13.734Z,0.00
2022-09-28T19:55:00.186Z,1.45
2022-09-28T19:57:30.659Z,0.00
2022-09-28T20:00:01.960Z,0.20
2022-09-28T20:02:33.263Z,0.00
2022-09-28T20:05:00.047Z,0.00
2022-09-28T20:07:26.618Z,0.00
2022-09-28T20:09:53.204Z,0.00
2022-09-28T20:12:19.933Z,0.00
2022-09-28T20:14:46.804Z,0.00
2022-09-28T20:17:13.485Z,0.00
2022-09-28T20:19:40.101Z,0.45
2022-09-28T20:22:06.681Z,0.00
2022-09-28T20:24:33.476Z,0.00
2022-09-28T20:27:01.108Z,0.00
2022-09-28T20:29:27.746Z,0.32
2022-09-28T20:31:54.390Z,0.00
2022-09-28T20:34:20.976Z,0.00
2022-09-28T20:36:48.195Z,0.00
2022-09-28T20:39:14.812Z,0.00
2022-09-28T20:41:41.418Z,0.00
2022-09-28T20:44:08.043Z,0.00
2022-09-28T20:46:35.790Z,0.00
2022-09-28T20:49:03.107Z,0.00
2022-09-28T20:51:29.966Z,0.00
2022-09-28T20:53:58.838Z,0.00
2022-09-28T20:56:39.955Z,0.00
2022-09-28T20:59:11.921Z,0.00
2022-09-28T21:01:39.502Z,0.00
2022-09-28T21:04:08.795Z,0.00
2022-09-28T21:06:38.706Z,0.00
2022-09-28T21:09:07.405Z,0.00
2022-09-28T21:11:35.704Z,0.00
2022-09-28T21:14:06.469Z,0.25
2022-09-28T21:16:34.749Z,0.00
2022-09-28T21:19:01.574Z,0.00
2022-09-28T21:21:28.177Z,0.00
2022-09-28T21:23:56.800Z,0.00
2022-09-28T21:26:27.173Z,0.00
2022-09-28T21:28:57.954Z,0.00
2022-09-28T21:31:29.430Z,0.00
2022-09-28T21:33:57.434Z,0.00
2022-09-28T21:36:25.155Z,0.00
2022-09-28T21:38:54.108Z,0.00
2022-09-28T21:41:20.719Z,0.00
2022-09-28T21:43:47.381Z,0.00
2022-09-28T21:46:13.993Z,0.00
2022-09-28T21:48:40.962Z,0.00
2022-09-28T21:51:15.219Z,0.00
2022-09-28T21:53:42.534Z,0.00
2022-09-28T21:56:12.469Z,0.00
2022-09-28T21:58:40.026Z,0.00
2022-09-28T22:01:19.650Z,0.00
2022-09-28T22:03:50.469Z,0.00
2022-09-28T22:06:20.292Z,0.00
2022-09-28T22:08:48.552Z,0.00
2022-09-28T22:11:21.263Z,0.00
2022-09-28T22:13:51.615Z,0.00
2022-09-28T22:16:21.740Z,0.00
2022-09-28T22:18:49.263Z,0.00
2022-09-28T22:21:21.172Z,0.00
2022-09-28T22:23:48.730Z,0.00
2022-09-28T22:26:21.504Z,0.00
2022-09-28T22:29:00.673Z,0.00
2022-09-28T22:31:34.558Z,0.00
2022-09-28T22:34:02.386Z,0.00
2022-09-28T22:36:29.531Z,0.00
2022-09-28T22:38:57.484Z,0.00
2022-09-28T22:41:24.857Z,0.00
2022-09-28T22:43:53.307Z,0.00
2022-09-28T22:46:26.397Z,0.00
2022-09-28T22:48:58.385Z,0.00
2022-09-28T22:51:28.072Z,1.60
2022-09-28T22:53:56.377Z,0.00
2022-09-28T22:56:23.461Z,0.00
2022-09-28T22:58:50.105Z,0.00
2022-09-28T23:01:21.190Z,0.00
2022-09-28T23:03:49.877Z,0.00
2022-09-28T23:06:19.521Z,0.00
2022-09-28T23:08:47.271Z,0.00
2022-09-28T23:11:15.178Z,0.00
2022-09-28T23:13:41.897Z,0.00
2022-09-28T23:16:12.170Z,0.05
2022-09-28T23:18:43.546Z,0.00
2022-09-28T23:21:19.444Z,0.00
2022-09-28T23:26:21.777Z,0.00
2022-09-28T23:28:48.471Z,0.00
2022-09-28T23:31:22.955Z,0.00
2022-09-28T23:33:50.382Z,0.00
2022-09-28T23:36:17.484Z,0.00
2022-09-28T23:38:44.182Z,0.00
2022-09-28T23:41:10.850Z,0.00
2022-09-28T23:43:37.697Z,0.00
2022-09-28T23:46:05.328Z,0.00
2022-09-28T23:48:32.849Z,0.00
2022-09-28T23:50:59.761Z,0.00
2022-09-28T23:53:26.677Z,0.00
2022-09-28T23:55:53.399Z,0.00
2022-09-28T23:58:20.297Z,0.00
